createdAt,value
2018-02-09T00:01:33.172Z,104.00
2018-02-09T00:04:01.516Z,94.55
2018-02-09T00:06:29.057Z,101.00
2018-02-09T00:08:56.570Z,101.93
2018-02-09T00:11:24.867Z,100.70
2018-02-09T00:13:52.385Z,112.78
2018-02-09T00:16:19.941Z,106.55
2018-02-09T00:18:47.432Z,108.47
2018-02-09T00:21:15.009Z,107.05
2018-02-09T00:23:42.515Z,105.28
2018-02-09T00:26:10.060Z,103.80
2018-02-09T00:28:37.573Z,112.65
2018-02-09T00:31:05.107Z,100.90
2018-02-09T00:33:33.391Z,101.68
2018-02-09T00:36:02.661Z,112.62
2018-02-09T00:38:30.165Z,109.00
2018-02-09T00:40:57.781Z,97.68
2018-02-09T00:43:25.306Z,107.90
2018-02-09T00:45:52.839Z,101.90
2018-02-09T00:48:20.380Z,99.22
2018-02-09T00:50:48.661Z,113.22
2018-02-09T00:53:16.957Z,103.95
2018-02-09T00:55:44.458Z,102.55
2018-02-09T00:58:11.959Z,94.07
2018-02-09T01:00:40.280Z,102.50
2018-02-09T01:03:07.796Z,102.28
2018-02-09T01:05:35.342Z,106.15
2018-02-09T01:08:03.621Z,103.50
2018-02-09T01:10:31.898Z,104.82
2018-02-09T01:13:00.216Z,100.00
2018-02-09T01:15:27.758Z,98.75
2018-02-09T01:17:55.258Z,110.07
2018-02-09T01:20:22.866Z,100.60
2018-02-09T01:22:50.378Z,103.28
2018-02-09T01:25:17.906Z,109.60
2018-02-09T01:27:45.435Z,97.53
2018-02-09T01:30:13.703Z,99.30
2018-02-09T01:32:41.986Z,97.00
2018-02-09T01:35:09.518Z,104.60
2018-02-09T01:37:37.041Z,102.35
2018-02-09T01:40:04.557Z,102.68
2018-02-09T01:42:32.866Z,96.25
2018-02-09T01:45:00.368Z,94.00
2018-02-09T01:47:27.867Z,108.22
2018-02-09T01:50:07.363Z,105.37
2018-02-09T01:52:34.909Z,110.32
2018-02-09T01:55:02.472Z,111.03
2018-02-09T01:57:30.016Z,109.45
2018-02-09T01:59:57.534Z,126.75
2018-02-09T02:02:25.070Z,101.93
2018-02-09T02:04:52.603Z,125.97
2018-02-09T02:07:20.113Z,120.45
2018-02-09T02:09:47.633Z,114.00
2018-02-09T02:12:15.178Z,110.97
2018-02-09T02:14:42.684Z,108.68
2018-02-09T02:17:10.206Z,114.57
2018-02-09T02:19:37.745Z,107.05
2018-02-09T02:22:05.270Z,100.30
2018-02-09T02:24:32.773Z,112.97
2018-02-09T02:27:00.313Z,111.05
2018-02-09T02:29:27.815Z,110.07
2018-02-09T02:31:56.112Z,114.43
2018-02-09T02:34:24.400Z,102.68
2018-02-09T02:36:52.696Z,107.50
2018-02-09T02:39:20.208Z,100.28
2018-02-09T02:41:48.515Z,103.55
2018-02-09T02:44:16.018Z,108.80
2018-02-09T02:46:43.530Z,108.03
2018-02-09T02:49:11.069Z,109.30
2018-02-09T02:51:39.326Z,99.47
2018-02-09T02:54:07.636Z,96.87
2018-02-09T02:56:35.140Z,102.85
2018-02-09T02:59:02.648Z,92.60
2018-02-09T03:01:30.187Z,103.18
2018-02-09T03:03:58.458Z,100.90
2018-02-09T03:06:26.749Z,96.93
2018-02-09T03:08:55.028Z,104.75
2018-02-09T03:11:23.366Z,99.28
2018-02-09T03:13:50.887Z,103.12
2018-02-09T03:16:18.426Z,101.47
2018-02-09T03:18:45.971Z,86.75
2018-02-09T03:21:14.243Z,101.43
2018-02-09T03:23:42.544Z,88.40
2018-02-09T03:26:10.097Z,91.37
2018-02-09T03:28:38.375Z,90.45
2018-02-09T03:31:05.908Z,102.43
2018-02-09T03:33:33.436Z,96.32
2018-02-09T03:36:00.968Z,99.87
2018-02-09T03:38:28.486Z,95.93
2018-02-09T03:40:56.036Z,100.07
2018-02-09T03:43:23.545Z,98.40
2018-02-09T03:45:51.082Z,99.53
2018-02-09T03:48:18.593Z,99.40
2018-02-09T03:50:46.104Z,96.07
2018-02-09T03:53:13.647Z,100.93
2018-02-09T03:55:41.923Z,100.80
2018-02-09T03:58:10.210Z,106.18
2018-02-09T04:00:37.755Z,103.50
2018-02-09T04:03:06.069Z,103.55
2018-02-09T04:05:33.595Z,105.63
2018-02-09T04:08:01.113Z,95.32
2018-02-09T04:10:28.637Z,92.75
2018-02-09T04:12:56.183Z,104.40
2018-02-09T04:15:23.692Z,100.90
2018-02-09T04:17:51.217Z,98.35
2018-02-09T04:20:18.737Z,97.40
2018-02-09T04:22:46.264Z,98.18
2018-02-09T04:25:13.768Z,101.35
2018-02-09T04:27:42.059Z,97.37
2018-02-09T04:30:09.569Z,96.22
2018-02-09T04:32:37.097Z,110.43
2018-02-09T04:35:04.608Z,106.53
2018-02-09T04:37:32.921Z,97.15
2018-02-09T04:40:00.475Z,98.18
2018-02-09T04:42:27.983Z,103.45
2018-02-09T04:44:55.486Z,106.25
2018-02-09T04:47:23.015Z,102.85
2018-02-09T04:49:50.549Z,98.10
2018-02-09T04:52:18.089Z,95.10
2018-02-09T04:54:45.605Z,103.28
2018-02-09T04:57:13.893Z,97.53
2018-02-09T04:59:41.428Z,103.32
2018-02-09T05:02:09.699Z,97.62
2018-02-09T05:04:37.256Z,98.65
2018-02-09T05:07:04.760Z,102.87
2018-02-09T05:09:33.066Z,94.53
2018-02-09T05:12:00.593Z,95.90
2018-02-09T05:14:28.105Z,98.78
2018-02-09T05:16:55.646Z,94.90
2018-02-09T05:19:23.149Z,98.00
2018-02-09T05:21:51.434Z,97.40
2018-02-09T05:24:18.938Z,93.15
2018-02-09T05:26:46.473Z,99.50
2018-02-09T05:29:13.990Z,101.12
2018-02-09T05:31:42.274Z,100.70
2018-02-09T05:34:10.577Z,94.50
2018-02-09T05:36:38.120Z,100.70
2018-02-09T05:39:05.638Z,94.18
2018-02-09T05:41:33.202Z,105.07
2018-02-09T05:44:00.723Z,96.72
2018-02-09T05:46:28.240Z,99.95
2018-02-09T05:48:56.547Z,102.38
2018-02-09T05:51:24.051Z,99.90
2018-02-09T05:53:51.561Z,99.10
2018-02-09T05:56:19.112Z,98.15
2018-02-09T05:58:46.647Z,101.72
2018-02-09T06:01:14.955Z,93.87
2018-02-09T06:03:42.468Z,106.68
2018-02-09T06:06:10.000Z,95.18
2018-02-09T06:08:37.531Z,106.10
2018-02-09T06:11:05.086Z,112.00
2018-02-09T06:13:32.648Z,111.15
2018-02-09T06:16:00.147Z,102.68
2018-02-09T06:18:27.686Z,104.53
2018-02-09T06:20:55.221Z,99.45
2018-02-09T06:23:22.760Z,114.40
2018-02-09T06:25:51.023Z,107.00
2018-02-09T06:28:19.320Z,100.53
2018-02-09T06:30:46.831Z,105.43
2018-02-09T06:33:14.382Z,105.35
2018-02-09T06:35:41.892Z,107.93
2018-02-09T06:38:09.432Z,107.80
2018-02-09T06:40:37.709Z,111.62
2018-02-09T06:43:06.000Z,120.32
2018-02-09T06:45:34.304Z,105.75
2018-02-09T06:48:01.834Z,127.78
2018-02-09T06:50:30.152Z,111.25
2018-02-09T06:52:57.667Z,109.47
2018-02-09T06:55:25.943Z,111.45
2018-02-09T06:57:54.249Z,102.72
2018-02-09T07:00:21.774Z,105.85
2018-02-09T07:02:50.579Z,108.28
2018-02-09T07:05:18.090Z,102.78
2018-02-09T07:07:45.604Z,112.32
2018-02-09T07:10:13.164Z,101.90
2018-02-09T07:12:40.677Z,104.85
2018-02-09T07:15:08.234Z,104.65
2018-02-09T07:17:35.746Z,106.43
2018-02-09T07:20:03.279Z,108.93
2018-02-09T07:22:31.567Z,106.97
2018-02-09T07:24:59.076Z,101.55
2018-02-09T07:27:26.582Z,95.80
2018-02-09T07:29:54.125Z,103.87
2018-02-09T07:32:22.417Z,97.07
2018-02-09T07:34:49.935Z,104.20
2018-02-09T07:37:17.477Z,94.43
2018-02-09T07:39:44.982Z,105.32
2018-02-09T07:42:13.308Z,104.05
2018-02-09T07:44:40.843Z,97.43
2018-02-09T07:47:08.355Z,103.32
2018-02-09T07:49:35.861Z,97.88
2018-02-09T07:52:03.393Z,103.05
2018-02-09T07:54:31.705Z,96.25
2018-02-09T07:56:59.237Z,97.93
2018-02-09T07:59:26.760Z,97.35
2018-02-09T08:01:54.290Z,102.32
2018-02-09T08:04:21.803Z,91.22
2018-02-09T08:06:50.134Z,88.93
2018-02-09T08:09:17.640Z,94.07
2018-02-09T08:11:45.991Z,86.15
2018-02-09T08:14:14.300Z,90.25
2018-02-09T08:16:42.148Z,93.65
2018-02-09T08:19:10.462Z,80.20
2018-02-09T08:21:37.976Z,85.70
2018-02-09T08:24:06.267Z,89.20
2018-02-09T08:26:34.577Z,82.47
2018-02-09T08:29:02.133Z,83.45
2018-02-09T08:31:29.650Z,88.65
2018-02-09T08:33:57.158Z,80.35
2018-02-09T08:36:24.688Z,80.35
2018-02-09T08:38:52.224Z,86.68
2018-02-09T08:41:19.742Z,86.43
2018-02-09T08:43:47.247Z,85.32
2018-02-09T08:46:15.571Z,84.78
2018-02-09T08:48:43.106Z,86.95
2018-02-09T08:51:10.622Z,87.82
2018-02-09T08:53:38.139Z,85.05
2018-02-09T08:56:05.675Z,87.70
2018-02-09T08:58:33.190Z,76.07
2018-02-09T09:01:00.731Z,81.20
2018-02-09T09:03:28.247Z,74.70
2018-02-09T09:05:56.532Z,77.50
2018-02-09T09:08:24.052Z,79.53
2018-02-09T09:10:51.560Z,81.07
2018-02-09T09:13:19.087Z,79.53
2018-02-09T09:15:47.354Z,82.68
2018-02-09T09:18:14.864Z,81.70
2018-02-09T09:20:42.431Z,69.57
2018-02-09T09:23:09.941Z,81.05
2018-02-09T09:25:38.270Z,62.58
2018-02-09T09:28:05.786Z,72.55
2018-02-09T09:30:34.104Z,69.32
2018-02-09T09:33:01.640Z,72.55
2018-02-09T09:35:29.175Z,82.43
2018-02-09T09:37:57.448Z,73.18
2018-02-09T09:40:25.777Z,72.05
2018-02-09T09:42:53.287Z,77.75
2018-02-09T09:45:20.800Z,72.68
2018-02-09T09:51:05.066Z,79.50
2018-02-09T09:53:32.593Z,83.75
2018-02-09T09:56:00.125Z,83.07
2018-02-09T09:58:28.425Z,75.55
2018-02-09T10:00:56.629Z,74.40
2018-02-09T10:03:24.149Z,68.87
2018-02-09T10:05:51.669Z,75.45
2018-02-09T10:08:19.201Z,78.03
2018-02-09T10:10:46.715Z,73.57
2018-02-09T10:13:14.997Z,80.75
2018-02-09T10:15:42.531Z,89.28
2018-02-09T10:18:10.517Z,81.18
2018-02-09T10:20:38.847Z,80.15
2018-02-09T10:23:06.388Z,79.87
2018-02-09T10:25:33.974Z,81.63
2018-02-09T10:28:01.512Z,83.47
2018-02-09T10:30:29.066Z,78.18
2018-02-09T10:32:56.571Z,80.12
2018-02-09T10:35:29.822Z,85.30
2018-02-09T10:37:57.400Z,77.35
2018-02-09T10:40:24.930Z,80.45
2018-02-09T10:42:52.449Z,73.05
2018-02-09T10:45:20.722Z,75.40
2018-02-09T10:47:49.033Z,77.40
2018-02-09T10:50:16.591Z,74.75
2018-02-09T10:52:44.105Z,82.97
2018-02-09T10:55:12.408Z,86.65
2018-02-09T10:57:40.717Z,75.05
2018-02-09T11:00:08.278Z,87.45
2018-02-09T11:02:35.820Z,85.78
2018-02-09T11:05:03.341Z,76.85
2018-02-09T11:07:30.898Z,83.85
2018-02-09T11:09:58.427Z,82.37
2018-02-09T11:12:25.997Z,87.32
2018-02-09T11:14:53.512Z,79.03
2018-02-09T11:17:21.100Z,82.18
2018-02-09T11:19:48.594Z,84.15
2018-02-09T11:22:16.151Z,73.47
2018-02-09T11:24:43.695Z,78.30
2018-02-09T11:27:11.231Z,83.15
2018-02-09T11:29:38.786Z,68.75
2018-02-09T11:32:06.303Z,77.57
2018-02-09T11:34:34.605Z,77.80
2018-02-09T11:37:02.122Z,81.18
2018-02-09T11:39:29.656Z,75.10
2018-02-09T11:41:57.210Z,73.18
2018-02-09T11:44:24.718Z,74.68
2018-02-09T11:46:53.008Z,72.65
2018-02-09T11:49:20.583Z,71.90
2018-02-09T11:51:48.108Z,80.57
2018-02-09T11:54:16.403Z,76.50
2018-02-09T11:56:43.974Z,71.40
2018-02-09T11:59:12.308Z,67.40
2018-02-09T12:01:40.613Z,71.80
2018-02-09T12:04:08.907Z,79.20
2018-02-09T12:06:36.450Z,73.35
2018-02-09T12:09:03.977Z,70.60
2018-02-09T12:11:31.507Z,81.78
2018-02-09T12:13:59.044Z,71.85
2018-02-09T12:16:26.581Z,73.57
2018-02-09T12:18:54.119Z,72.40
2018-02-09T12:21:22.390Z,70.72
2018-02-09T12:23:49.921Z,81.47
2018-02-09T12:26:17.469Z,72.70
2018-02-09T12:28:44.994Z,80.72
2018-02-09T12:31:12.551Z,86.65
2018-02-09T12:33:40.846Z,83.65
2018-02-09T12:36:08.403Z,85.30
2018-02-09T12:38:35.927Z,80.43
2018-02-09T12:41:04.272Z,76.95
2018-02-09T12:43:31.825Z,70.25
2018-02-09T12:45:59.342Z,79.40
2018-02-09T12:48:26.864Z,83.18
2018-02-09T12:50:54.389Z,77.18
2018-02-09T12:53:21.968Z,84.22
2018-02-09T12:55:49.476Z,78.85
2018-02-09T12:58:17.027Z,83.00
2018-02-09T13:00:44.930Z,88.75
2018-02-09T13:03:12.436Z,75.00
2018-02-09T13:05:40.000Z,78.68
2018-02-09T13:08:08.275Z,80.95
2018-02-09T13:10:35.794Z,71.50
2018-02-09T13:13:07.033Z,82.62
2018-02-09T13:15:34.574Z,67.32
2018-02-09T13:18:02.128Z,74.25
2018-02-09T13:20:29.679Z,72.50
2018-02-09T13:23:09.780Z,80.05
2018-02-09T13:25:37.307Z,76.55
2018-02-09T13:28:04.837Z,71.35
2018-02-09T13:30:33.143Z,74.50
2018-02-09T13:33:12.407Z,70.87
2018-02-09T13:35:39.955Z,69.93
2018-02-09T13:38:07.500Z,77.40
2018-02-09T13:40:35.907Z,68.10
2018-02-09T13:43:03.443Z,79.80
2018-02-09T13:45:30.992Z,74.37
2018-02-09T13:47:58.538Z,74.72
2018-02-09T13:50:26.090Z,77.95
2018-02-09T13:52:54.395Z,81.12
2018-02-09T13:55:22.858Z,78.25
2018-02-09T13:57:50.415Z,83.03
2018-02-09T14:00:17.933Z,71.22
2018-02-09T14:02:45.467Z,79.03
2018-02-09T14:05:13.007Z,80.55
2018-02-09T14:07:40.532Z,81.47
2018-02-09T14:10:08.860Z,72.70
2018-02-09T14:12:36.368Z,79.10
2018-02-09T14:15:03.872Z,80.43
2018-02-09T14:17:31.398Z,80.87
2018-02-09T14:19:58.919Z,81.93
2018-02-09T14:22:27.252Z,77.72
2018-02-09T14:24:54.802Z,84.85
2018-02-09T14:27:22.327Z,79.53
2018-02-09T14:29:51.484Z,76.30
2018-02-09T14:32:19.640Z,69.10
2018-02-09T14:34:47.881Z,68.80
2018-02-09T14:37:15.476Z,63.85
2018-02-09T14:39:43.067Z,70.70
2018-02-09T14:42:10.703Z,66.93
2018-02-09T14:44:38.383Z,71.10
2018-02-09T14:47:05.889Z,75.00
2018-02-09T14:49:34.184Z,77.95
2018-02-09T14:52:01.720Z,77.93
2018-02-09T14:54:30.020Z,68.43
2018-02-09T14:56:57.580Z,67.18
2018-02-09T14:59:25.105Z,66.30
2018-02-09T15:01:53.410Z,65.35
2018-02-09T15:04:21.033Z,67.20
2018-02-09T15:06:49.618Z,70.57
2018-02-09T15:09:17.183Z,75.03
2018-02-09T15:11:44.714Z,74.95
2018-02-09T15:14:12.268Z,68.75
2018-02-09T15:16:39.801Z,75.57
2018-02-09T15:19:07.351Z,77.20
2018-02-09T15:21:34.908Z,83.93
2018-02-09T15:24:02.444Z,72.85
2018-02-09T15:26:30.763Z,73.28
2018-02-09T15:29:10.659Z,77.05
2018-02-09T15:31:38.249Z,68.30
2018-02-09T15:34:06.590Z,69.65
2018-02-09T15:36:34.145Z,71.05
2018-02-09T15:39:02.958Z,71.95
2018-02-09T15:41:31.287Z,74.10
2018-02-09T15:43:58.829Z,69.12
2018-02-09T15:46:26.338Z,68.72
2018-02-09T15:48:53.893Z,67.32
2018-02-09T15:51:22.228Z,69.18
2018-02-09T15:53:49.808Z,66.57
2018-02-09T15:56:17.352Z,74.87
2018-02-09T15:58:44.861Z,77.68
2018-02-09T16:01:13.174Z,73.60
2018-02-09T16:03:42.178Z,70.93
2018-02-09T16:06:09.774Z,77.25
2018-02-09T16:08:37.324Z,74.40
2018-02-09T16:11:04.825Z,83.22
2018-02-09T16:13:37.414Z,71.78
2018-02-09T16:16:04.966Z,71.00
2018-02-09T16:18:34.197Z,70.65
2018-02-09T16:21:01.783Z,65.72
2018-02-09T16:23:33.272Z,70.47
2018-02-09T16:26:00.849Z,70.05
2018-02-09T16:28:28.410Z,69.62
2018-02-09T16:30:55.978Z,75.18
2018-02-09T16:33:23.594Z,68.78
2018-02-09T16:35:51.159Z,70.40
2018-02-09T16:38:19.448Z,63.35
2018-02-09T16:40:47.012Z,71.03
2018-02-09T16:43:14.540Z,68.78
2018-02-09T16:45:42.060Z,64.22
2018-02-09T16:48:09.596Z,68.80
2018-02-09T16:50:37.130Z,74.15
2018-02-09T16:53:05.460Z,74.32
2018-02-09T16:55:32.980Z,59.53
2018-02-09T16:58:01.309Z,64.37
2018-02-09T17:00:28.973Z,65.80
2018-02-09T17:02:57.532Z,64.30
2018-02-09T17:05:25.064Z,61.85
2018-02-09T17:07:52.589Z,73.00
2018-02-09T17:10:20.905Z,72.97
2018-02-09T17:12:48.859Z,84.35
2018-02-09T17:15:16.473Z,76.80
2018-02-09T17:17:44.035Z,73.70
2018-02-09T17:20:11.639Z,61.72
2018-02-09T17:22:40.797Z,68.87
2018-02-09T17:25:08.310Z,75.30
2018-02-09T17:27:35.875Z,74.18
2018-02-09T17:30:03.390Z,83.07
2018-02-09T17:32:30.904Z,73.15
2018-02-09T17:34:58.569Z,72.65
2018-02-09T17:37:27.516Z,64.93
2018-02-09T17:39:55.068Z,62.97
2018-02-09T17:42:22.596Z,60.38
2018-02-09T17:44:50.131Z,67.68
2018-02-09T17:47:17.636Z,64.35
2018-02-09T17:49:45.205Z,67.57
2018-02-09T17:52:12.799Z,63.80
2018-02-09T17:54:41.085Z,67.60
2018-02-09T17:57:08.592Z,64.70
2018-02-09T17:59:36.142Z,71.20
2018-02-09T18:02:03.658Z,80.95
2018-02-09T18:04:31.193Z,80.87
2018-02-09T18:06:58.730Z,73.50
2018-02-09T18:09:26.407Z,66.40
2018-02-09T18:11:53.939Z,66.10
2018-02-09T18:14:21.452Z,63.10
2018-02-09T18:16:49.014Z,73.47
2018-02-09T18:19:16.617Z,68.18
2018-02-09T18:21:44.179Z,68.97
2018-02-09T18:24:11.706Z,75.80
2018-02-09T18:26:39.255Z,70.78
2018-02-09T18:29:07.568Z,74.87
2018-02-09T18:31:35.092Z,73.93
2018-02-09T18:34:02.683Z,82.75
2018-02-09T18:36:30.367Z,78.32
2018-02-09T18:38:58.842Z,75.15
2018-02-09T18:41:27.490Z,66.55
2018-02-09T18:43:55.237Z,68.00
2018-02-09T18:46:23.050Z,63.55
2018-02-09T18:48:51.467Z,74.15
2018-02-09T18:51:19.009Z,70.00
2018-02-09T18:53:47.302Z,65.72
2018-02-09T18:56:14.840Z,68.53
2018-02-09T18:58:42.463Z,66.43
2018-02-09T19:01:09.979Z,66.80
2018-02-09T19:03:38.289Z,71.18
2018-02-09T19:06:05.834Z,70.12
2018-02-09T19:08:33.462Z,68.60
2018-02-09T19:11:01.064Z,74.82
2018-02-09T19:13:28.868Z,81.85
2018-02-09T19:15:57.247Z,75.53
2018-02-09T19:18:24.875Z,89.90
2018-02-09T19:20:52.400Z,82.10
2018-02-09T19:23:20.120Z,82.47
2018-02-09T19:25:47.665Z,83.72
2018-02-09T19:28:15.178Z,74.03
2018-02-09T19:30:43.487Z,85.93
2018-02-09T19:33:11.945Z,84.05
2018-02-09T19:35:39.919Z,85.35
2018-02-09T19:38:08.315Z,83.35
2018-02-09T19:40:35.896Z,84.15
2018-02-09T19:43:03.602Z,78.40
2018-02-09T19:45:31.958Z,93.70
2018-02-09T19:47:59.731Z,85.25
2018-02-09T19:50:27.276Z,80.95
2018-02-09T19:52:55.770Z,84.05
2018-02-09T19:55:24.097Z,84.57
2018-02-09T19:57:52.373Z,80.95
2018-02-09T20:00:19.969Z,82.28
2018-02-09T20:02:47.542Z,81.22
2018-02-09T20:05:15.852Z,79.15
2018-02-09T20:07:43.424Z,82.18
2018-02-09T20:10:11.057Z,75.10
2018-02-09T20:12:39.382Z,77.68
2018-02-09T20:15:06.891Z,82.47
2018-02-09T20:17:35.166Z,81.12
2018-02-09T20:20:03.539Z,83.37
2018-02-09T20:22:31.978Z,81.07
2018-02-09T20:25:00.315Z,83.12
2018-02-09T20:27:27.833Z,84.10
2018-02-09T20:29:55.396Z,89.35
2018-02-09T20:32:23.110Z,88.62
2018-02-09T20:34:50.997Z,92.57
2018-02-09T20:37:18.620Z,87.80
2018-02-09T20:39:47.524Z,85.10
2018-02-09T20:42:15.039Z,102.22
2018-02-09T20:44:43.062Z,94.68
2018-02-09T20:47:10.603Z,91.95
2018-02-09T20:49:38.131Z,91.55
2018-02-09T20:52:05.692Z,97.72
2018-02-09T20:54:33.230Z,92.88
2018-02-09T20:57:01.232Z,91.47
2018-02-09T20:59:28.800Z,87.00
2018-02-09T21:01:57.505Z,94.25
2018-02-09T21:04:25.249Z,93.60
2018-02-09T21:06:54.140Z,86.93
2018-02-09T21:09:21.802Z,99.37
2018-02-09T21:11:49.363Z,101.62
2018-02-09T21:14:17.651Z,103.20
2018-02-09T21:16:45.411Z,100.78
2018-02-09T21:19:12.934Z,94.60
2018-02-09T21:21:40.488Z,100.25
2018-02-09T21:24:08.005Z,98.82
2018-02-09T21:26:35.519Z,105.22
2018-02-09T21:29:03.070Z,95.53
2018-02-09T21:31:30.711Z,94.22
2018-02-09T21:33:58.237Z,90.43
2018-02-09T21:36:26.510Z,104.45
2018-02-09T21:38:54.055Z,98.82
2018-02-09T21:41:21.584Z,117.05
2018-02-09T21:43:49.134Z,106.37
2018-02-09T21:46:16.648Z,99.40
2018-02-09T21:48:44.210Z,100.15
2018-02-09T21:51:11.736Z,96.80
2018-02-09T21:53:40.037Z,98.15
2018-02-09T21:56:07.552Z,96.55
2018-02-09T21:58:35.107Z,93.12
2018-02-09T22:01:02.648Z,94.55
2018-02-09T22:03:30.195Z,99.30
2018-02-09T22:05:57.707Z,93.95
2018-02-09T22:08:26.031Z,101.07
2018-02-09T22:10:53.536Z,100.20
2018-02-09T22:13:21.850Z,98.15
2018-02-09T22:15:49.378Z,101.18
2018-02-09T22:18:17.666Z,106.87
2018-02-09T22:20:45.202Z,110.47
2018-02-09T22:23:12.723Z,106.68
2018-02-09T22:25:40.262Z,103.93
2018-02-09T22:28:07.813Z,96.65
2018-02-09T22:30:35.333Z,102.47
2018-02-09T22:33:02.884Z,98.80
2018-02-09T22:35:30.398Z,107.25
2018-02-09T22:37:57.927Z,115.03
2018-02-09T22:40:26.237Z,97.22
2018-02-09T22:42:53.775Z,103.50
2018-02-09T22:45:21.324Z,95.82
2018-02-09T22:47:49.604Z,108.50
2018-02-09T22:50:17.883Z,105.68
2018-02-09T22:52:46.180Z,96.63
2018-02-09T22:55:13.681Z,110.50
2018-02-09T22:57:41.229Z,98.70
2018-02-09T23:00:08.760Z,104.55
2018-02-09T23:02:36.278Z,102.68
2018-02-09T23:05:04.587Z,96.53
2018-02-09T23:07:32.100Z,103.38
2018-02-09T23:09:59.651Z,102.35
2018-02-09T23:12:27.170Z,103.03
2018-02-09T23:14:54.833Z,107.03
2018-02-09T23:17:22.392Z,101.82
2018-02-09T23:19:49.915Z,92.45
2018-02-09T23:22:18.213Z,99.25
2018-02-09T23:24:45.745Z,96.93
2018-02-09T23:27:14.026Z,99.03
2018-02-09T23:29:42.328Z,94.35
2018-02-09T23:32:09.867Z,107.50
2018-02-09T23:34:38.160Z,96.40
2018-02-09T23:37:05.711Z,92.70
2018-02-09T23:39:34.011Z,108.60
2018-02-09T23:42:01.681Z,94.75
2018-02-09T23:44:29.197Z,108.22
2018-02-09T23:46:57.464Z,99.13
2018-02-09T23:49:24.994Z,94.85
2018-02-09T23:51:52.492Z,93.43
2018-02-09T23:54:20.783Z,100.28
2018-02-09T23:56:48.299Z,98.25
2018-02-09T23:59:15.839Z,95.07
